sensor_id;sensor_type;location;lat;lon;timestamp;P1;durP1;ratioP1;P2;durP2;ratioP2
15261;SDS011;7733;51.554;13.590;2023-07-29T00:02:00;3.67;;;3.47;;
15261;SDS011;7733;51.554;13.590;2023-07-29T00:04:26;3.10;;;3.00;;
15261;SDS011;7733;51.554;13.590;2023-07-29T00:06:52;3.40;;;3.30;;
15261;SDS011;7733;51.554;13.590;2023-07-29T00:09:17;3.13;;;3.03;;
15261;SDS011;7733;51.554;13.590;2023-07-29T00:11:43;3.20;;;3.10;;
15261;SDS011;7733;51.554;13.590;2023-07-29T00:14:09;3.13;;;3.03;;
15261;SDS011;7733;51.554;13.590;2023-07-29T00:16:35;3.40;;;3.20;;
15261;SDS011;7733;51.554;13.590;2023-07-29T00:19:02;2.87;;;2.77;;
15261;SDS011;7733;51.554;13.590;2023-07-29T00:21:28;2.90;;;2.80;;
15261;SDS011;7733;51.554;13.590;2023-07-29T00:23:54;2.67;;;2.67;;
15261;SDS011;7733;51.554;13.590;2023-07-29T00:26:22;3.10;;;2.90;;
15261;SDS011;7733;51.554;13.590;2023-07-29T00:28:50;2.80;;;2.70;;
15261;SDS011;7733;51.554;13.590;2023-07-29T00:31:16;2.80;;;2.70;;
15261;SDS011;7733;51.554;13.590;2023-07-29T00:33:42;2.70;;;2.60;;
15261;SDS011;7733;51.554;13.590;2023-07-29T00:36:08;2.63;;;2.63;;
15261;SDS011;7733;51.554;13.590;2023-07-29T00:38:34;3.13;;;3.03;;
15261;SDS011;7733;51.554;13.590;2023-07-29T00:41:00;3.10;;;3.00;;
15261;SDS011;7733;51.554;13.590;2023-07-29T00:43:28;3.37;;;3.27;;
15261;SDS011;7733;51.554;13.590;2023-07-29T00:45:54;2.60;;;2.50;;
15261;SDS011;7733;51.554;13.590;2023-07-29T00:48:22;2.90;;;2.70;;
15261;SDS011;7733;51.554;13.590;2023-07-29T00:50:49;2.80;;;2.70;;
15261;SDS011;7733;51.554;13.590;2023-07-29T00:53:16;2.80;;;2.70;;
15261;SDS011;7733;51.554;13.590;2023-07-29T00:55:42;2.90;;;2.80;;
15261;SDS011;7733;51.554;13.590;2023-07-29T00:58:09;2.90;;;2.80;;
15261;SDS011;7733;51.554;13.590;2023-07-29T01:00:35;3.03;;;2.93;;
15261;SDS011;7733;51.554;13.590;2023-07-29T01:03:01;2.90;;;2.80;;
15261;SDS011;7733;51.554;13.590;2023-07-29T01:05:30;2.93;;;2.77;;
15261;SDS011;7733;51.554;13.590;2023-07-29T01:08:06;2.53;;;2.53;;
15261;SDS011;7733;51.554;13.590;2023-07-29T01:16:37;2.67;;;2.60;;
15261;SDS011;7733;51.554;13.590;2023-07-29T01:19:12;2.70;;;2.67;;
15261;SDS011;7733;51.554;13.590;2023-07-29T01:22:04;2.90;;;2.80;;
15261;SDS011;7733;51.554;13.590;2023-07-29T01:24:32;2.87;;;2.77;;
15261;SDS011;7733;51.554;13.590;2023-07-29T01:26:58;2.80;;;2.67;;
15261;SDS011;7733;51.554;13.590;2023-07-29T01:29:26;3.23;;;3.03;;
15261;SDS011;7733;51.554;13.590;2023-07-29T01:31:54;3.37;;;3.27;;
15261;SDS011;7733;51.554;13.590;2023-07-29T01:34:27;3.83;;;3.73;;
15261;SDS011;7733;51.554;13.590;2023-07-29T01:37:04;4.47;;;4.10;;
15261;SDS011;7733;51.554;13.590;2023-07-29T01:39:38;3.80;;;3.60;;
15261;SDS011;7733;51.554;13.590;2023-07-29T01:42:05;3.73;;;3.43;;
15261;SDS011;7733;51.554;13.590;2023-07-29T01:44:32;3.80;;;3.60;;
15261;SDS011;7733;51.554;13.590;2023-07-29T01:46:59;3.43;;;3.23;;
15261;SDS011;7733;51.554;13.590;2023-07-29T01:49:25;3.23;;;3.13;;
15261;SDS011;7733;51.554;13.590;2023-07-29T01:51:50;3.30;;;3.10;;
15261;SDS011;7733;51.554;13.590;2023-07-29T01:54:16;3.20;;;3.10;;
15261;SDS011;7733;51.554;13.590;2023-07-29T01:56:42;2.80;;;2.70;;
15261;SDS011;7733;51.554;13.590;2023-07-29T01:59:07;2.80;;;2.70;;
15261;SDS011;7733;51.554;13.590;2023-07-29T02:01:33;2.77;;;2.67;;
15261;SDS011;7733;51.554;13.590;2023-07-29T02:03:59;2.63;;;2.53;;
15261;SDS011;7733;51.554;13.590;2023-07-29T02:06:25;2.50;;;2.50;;
15261;SDS011;7733;51.554;13.590;2023-07-29T02:08:51;2.80;;;2.70;;
15261;SDS011;7733;51.554;13.590;2023-07-29T02:11:19;2.63;;;2.60;;
15261;SDS011;7733;51.554;13.590;2023-07-29T02:13:52;2.70;;;2.60;;
15261;SDS011;7733;51.554;13.590;2023-07-29T02:16:18;2.53;;;2.53;;
15261;SDS011;7733;51.554;13.590;2023-07-29T02:18:48;2.80;;;2.70;;
15261;SDS011;7733;51.554;13.590;2023-07-29T02:21:15;2.80;;;2.70;;
15261;SDS011;7733;51.554;13.590;2023-07-29T02:23:41;2.40;;;2.30;;
15261;SDS011;7733;51.554;13.590;2023-07-29T02:26:07;2.70;;;2.50;;
15261;SDS011;7733;51.554;13.590;2023-07-29T02:28:32;3.00;;;2.80;;
15261;SDS011;7733;51.554;13.590;2023-07-29T02:33:48;3.00;;;2.90;;
15261;SDS011;7733;51.554;13.590;2023-07-29T02:36:15;2.70;;;2.60;;
15261;SDS011;7733;51.554;13.590;2023-07-29T02:38:41;2.63;;;2.50;;
15261;SDS011;7733;51.554;13.590;2023-07-29T02:41:08;2.43;;;2.33;;
15261;SDS011;7733;51.554;13.590;2023-07-29T02:43:37;2.40;;;2.30;;
15261;SDS011;7733;51.554;13.590;2023-07-29T02:46:03;2.30;;;2.20;;
15261;SDS011;7733;51.554;13.590;2023-07-29T02:48:29;2.50;;;2.40;;
15261;SDS011;7733;51.554;13.590;2023-07-29T02:50:55;2.73;;;2.53;;
15261;SDS011;7733;51.554;13.590;2023-07-29T02:53:22;2.97;;;2.87;;
15261;SDS011;7733;51.554;13.590;2023-07-29T02:55:48;2.77;;;2.60;;
15261;SDS011;7733;51.554;13.590;2023-07-29T02:58:14;2.80;;;2.63;;
15261;SDS011;7733;51.554;13.590;2023-07-29T03:00:40;2.80;;;2.70;;
15261;SDS011;7733;51.554;13.590;2023-07-29T03:03:07;2.70;;;2.50;;
15261;SDS011;7733;51.554;13.590;2023-07-29T03:05:33;2.30;;;2.20;;
15261;SDS011;7733;51.554;13.590;2023-07-29T03:07:59;3.00;;;2.70;;
15261;SDS011;7733;51.554;13.590;2023-07-29T03:10:25;2.33;;;2.13;;
15261;SDS011;7733;51.554;13.590;2023-07-29T03:12:53;2.33;;;2.13;;
15261;SDS011;7733;51.554;13.590;2023-07-29T03:15:22;1.93;;;1.93;;
15261;SDS011;7733;51.554;13.590;2023-07-29T03:17:52;2.10;;;2.00;;
15261;SDS011;7733;51.554;13.590;2023-07-29T03:20:18;2.20;;;2.10;;
15261;SDS011;7733;51.554;13.590;2023-07-29T03:22:45;2.17;;;2.07;;
15261;SDS011;7733;51.554;13.590;2023-07-29T03:25:11;2.20;;;2.10;;
15261;SDS011;7733;51.554;13.590;2023-07-29T03:27:38;2.13;;;2.03;;
15261;SDS011;7733;51.554;13.590;2023-07-29T03:30:05;2.30;;;2.07;;
15261;SDS011;7733;51.554;13.590;2023-07-29T03:32:32;1.80;;;1.80;;
15261;SDS011;7733;51.554;13.590;2023-07-29T03:34:58;1.93;;;1.90;;
15261;SDS011;7733;51.554;13.590;2023-07-29T03:37:24;2.43;;;2.23;;
15261;SDS011;7733;51.554;13.590;2023-07-29T03:39:50;2.00;;;1.90;;
15261;SDS011;7733;51.554;13.590;2023-07-29T03:42:17;1.67;;;1.67;;
15261;SDS011;7733;51.554;13.590;2023-07-29T03:44:43;1.80;;;1.80;;
15261;SDS011;7733;51.554;13.590;2023-07-29T03:47:08;1.90;;;1.80;;
15261;SDS011;7733;51.554;13.590;2023-07-29T03:49:34;2.20;;;2.10;;
15261;SDS011;7733;51.554;13.590;2023-07-29T03:52:00;1.80;;;1.80;;
15261;SDS011;7733;51.554;13.590;2023-07-29T03:54:25;1.70;;;1.70;;
15261;SDS011;7733;51.554;13.590;2023-07-29T03:56:51;1.90;;;1.80;;
15261;SDS011;7733;51.554;13.590;2023-07-29T03:59:17;2.00;;;1.90;;
15261;SDS011;7733;51.554;13.590;2023-07-29T04:01:42;2.40;;;1.70;;
15261;SDS011;7733;51.554;13.590;2023-07-29T04:04:08;2.10;;;1.70;;
15261;SDS011;7733;51.554;13.590;2023-07-29T04:06:34;1.60;;;1.60;;
15261;SDS011;7733;51.554;13.590;2023-07-29T04:09:00;2.30;;;1.63;;
15261;SDS011;7733;51.554;13.590;2023-07-29T04:11:26;1.90;;;1.80;;
15261;SDS011;7733;51.554;13.590;2023-07-29T04:13:52;2.00;;;1.90;;
15261;SDS011;7733;51.554;13.590;2023-07-29T04:16:17;1.90;;;1.80;;
15261;SDS011;7733;51.554;13.590;2023-07-29T04:18:43;2.43;;;1.63;;
15261;SDS011;7733;51.554;13.590;2023-07-29T04:21:09;1.40;;;1.40;;
15261;SDS011;7733;51.554;13.590;2023-07-29T04:23:34;1.40;;;1.40;;
15261;SDS011;7733;51.554;13.590;2023-07-29T04:26:00;1.60;;;1.60;;
15261;SDS011;7733;51.554;13.590;2023-07-29T04:28:26;1.60;;;1.60;;
15261;SDS011;7733;51.554;13.590;2023-07-29T04:30:52;1.73;;;1.60;;
15261;SDS011;7733;51.554;13.590;2023-07-29T04:33:17;1.80;;;1.70;;
15261;SDS011;7733;51.554;13.590;2023-07-29T04:35:43;1.60;;;1.60;;
15261;SDS011;7733;51.554;13.590;2023-07-29T04:38:09;2.20;;;1.50;;
15261;SDS011;7733;51.554;13.590;2023-07-29T04:40:35;1.40;;;1.40;;
15261;SDS011;7733;51.554;13.590;2023-07-29T04:43:01;1.40;;;1.40;;
15261;SDS011;7733;51.554;13.590;2023-07-29T04:45:29;3.50;;;1.87;;
15261;SDS011;7733;51.554;13.590;2023-07-29T04:47:56;1.40;;;1.30;;
15261;SDS011;7733;51.554;13.590;2023-07-29T04:50:23;1.60;;;1.60;;
15261;SDS011;7733;51.554;13.590;2023-07-29T04:52:49;1.30;;;1.30;;
15261;SDS011;7733;51.554;13.590;2023-07-29T04:55:15;1.47;;;1.47;;
15261;SDS011;7733;51.554;13.590;2023-07-29T04:57:40;1.30;;;1.20;;
15261;SDS011;7733;51.554;13.590;2023-07-29T05:00:06;1.37;;;1.37;;
15261;SDS011;7733;51.554;13.590;2023-07-29T05:02:32;1.30;;;1.30;;
15261;SDS011;7733;51.554;13.590;2023-07-29T05:04:58;1.33;;;1.33;;
15261;SDS011;7733;51.554;13.590;2023-07-29T05:07:24;1.50;;;1.40;;
15261;SDS011;7733;51.554;13.590;2023-07-29T05:09:50;1.30;;;1.30;;
15261;SDS011;7733;51.554;13.590;2023-07-29T05:12:15;1.27;;;1.27;;
15261;SDS011;7733;51.554;13.590;2023-07-29T05:14:41;1.80;;;1.40;;
15261;SDS011;7733;51.554;13.590;2023-07-29T05:17:07;1.20;;;1.20;;
15261;SDS011;7733;51.554;13.590;2023-07-29T05:19:32;1.10;;;1.10;;
15261;SDS011;7733;51.554;13.590;2023-07-29T05:21:58;1.23;;;1.23;;
15261;SDS011;7733;51.554;13.590;2023-07-29T05:24:24;1.17;;;1.17;;
15261;SDS011;7733;51.554;13.590;2023-07-29T05:26:49;1.10;;;1.10;;
15261;SDS011;7733;51.554;13.590;2023-07-29T05:29:15;1.40;;;1.10;;
15261;SDS011;7733;51.554;13.590;2023-07-29T05:31:41;1.07;;;1.07;;
15261;SDS011;7733;51.554;13.590;2023-07-29T05:34:07;1.00;;;1.00;;
15261;SDS011;7733;51.554;13.590;2023-07-29T05:36:33;0.90;;;0.90;;
15261;SDS011;7733;51.554;13.590;2023-07-29T05:38:59;1.00;;;1.00;;
15261;SDS011;7733;51.554;13.590;2023-07-29T05:41:24;0.90;;;0.90;;
15261;SDS011;7733;51.554;13.590;2023-07-29T05:43:53;0.80;;;0.80;;
15261;SDS011;7733;51.554;13.590;2023-07-29T05:46:18;1.03;;;1.00;;
15261;SDS011;7733;51.554;13.590;2023-07-29T05:48:44;1.03;;;1.03;;
15261;SDS011;7733;51.554;13.590;2023-07-29T05:51:10;0.97;;;0.97;;
15261;SDS011;7733;51.554;13.590;2023-07-29T05:53:35;1.00;;;1.00;;
15261;SDS011;7733;51.554;13.590;2023-07-29T05:56:01;0.87;;;0.87;;
15261;SDS011;7733;51.554;13.590;2023-07-29T05:58:27;1.27;;;1.00;;
15261;SDS011;7733;51.554;13.590;2023-07-29T06:00:53;1.50;;;1.20;;
15261;SDS011;7733;51.554;13.590;2023-07-29T06:03:18;1.10;;;1.10;;
15261;SDS011;7733;51.554;13.590;2023-07-29T06:05:44;1.13;;;1.13;;
15261;SDS011;7733;51.554;13.590;2023-07-29T06:08:10;1.00;;;1.00;;
15261;SDS011;7733;51.554;13.590;2023-07-29T06:10:36;1.10;;;1.07;;
15261;SDS011;7733;51.554;13.590;2023-07-29T06:13:02;1.30;;;1.20;;
15261;SDS011;7733;51.554;13.590;2023-07-29T06:15:28;1.03;;;1.00;;
15261;SDS011;7733;51.554;13.590;2023-07-29T06:17:53;1.00;;;1.00;;
15261;SDS011;7733;51.554;13.590;2023-07-29T06:20:19;1.10;;;1.10;;
15261;SDS011;7733;51.554;13.590;2023-07-29T06:22:45;0.90;;;0.90;;
15261;SDS011;7733;51.554;13.590;2023-07-29T06:25:10;0.93;;;0.93;;
15261;SDS011;7733;51.554;13.590;2023-07-29T06:27:36;2.73;;;0.90;;
15261;SDS011;7733;51.554;13.590;2023-07-29T06:30:02;1.20;;;1.10;;
15261;SDS011;7733;51.554;13.590;2023-07-29T06:32:28;0.90;;;0.90;;
15261;SDS011;7733;51.554;13.590;2023-07-29T06:34:53;0.80;;;0.80;;
15261;SDS011;7733;51.554;13.590;2023-07-29T06:37:19;0.83;;;0.83;;
15261;SDS011;7733;51.554;13.590;2023-07-29T06:39:45;1.03;;;1.03;;
15261;SDS011;7733;51.554;13.590;2023-07-29T06:42:11;0.90;;;0.90;;
15261;SDS011;7733;51.554;13.590;2023-07-29T06:44:37;0.90;;;0.90;;
15261;SDS011;7733;51.554;13.590;2023-07-29T06:47:03;1.10;;;1.10;;
15261;SDS011;7733;51.554;13.590;2023-07-29T06:49:29;1.00;;;1.00;;
15261;SDS011;7733;51.554;13.590;2023-07-29T06:51:55;0.87;;;0.87;;
15261;SDS011;7733;51.554;13.590;2023-07-29T06:54:24;0.80;;;0.80;;
15261;SDS011;7733;51.554;13.590;2023-07-29T06:56:53;0.80;;;0.80;;
15261;SDS011;7733;51.554;13.590;2023-07-29T06:59:19;1.00;;;1.00;;
15261;SDS011;7733;51.554;13.590;2023-07-29T07:01:45;3.30;;;1.20;;
15261;SDS011;7733;51.554;13.590;2023-07-29T07:04:11;0.90;;;0.90;;
15261;SDS011;7733;51.554;13.590;2023-07-29T07:06:37;1.60;;;1.00;;
15261;SDS011;7733;51.554;13.590;2023-07-29T07:09:02;0.90;;;0.90;;
15261;SDS011;7733;51.554;13.590;2023-07-29T07:11:28;1.00;;;1.00;;
15261;SDS011;7733;51.554;13.590;2023-07-29T07:13:54;1.73;;;1.07;;
15261;SDS011;7733;51.554;13.590;2023-07-29T07:16:19;0.80;;;0.80;;
15261;SDS011;7733;51.554;13.590;2023-07-29T07:18:45;1.00;;;1.00;;
15261;SDS011;7733;51.554;13.590;2023-07-29T07:21:11;1.10;;;1.10;;
15261;SDS011;7733;51.554;13.590;2023-07-29T07:23:38;1.30;;;1.20;;
15261;SDS011;7733;51.554;13.590;2023-07-29T07:26:04;1.00;;;1.00;;
15261;SDS011;7733;51.554;13.590;2023-07-29T07:28:30;1.10;;;1.10;;
15261;SDS011;7733;51.554;13.590;2023-07-29T07:30:55;0.80;;;0.80;;
15261;SDS011;7733;51.554;13.590;2023-07-29T07:33:22;1.07;;;0.80;;
15261;SDS011;7733;51.554;13.590;2023-07-29T07:35:48;1.17;;;1.17;;
15261;SDS011;7733;51.554;13.590;2023-07-29T07:38:14;0.90;;;0.90;;
15261;SDS011;7733;51.554;13.590;2023-07-29T07:40:40;1.23;;;1.10;;
15261;SDS011;7733;51.554;13.590;2023-07-29T07:43:05;0.90;;;0.90;;
15261;SDS011;7733;51.554;13.590;2023-07-29T07:45:32;0.83;;;0.83;;
15261;SDS011;7733;51.554;13.590;2023-07-29T07:47:58;0.90;;;0.90;;
15261;SDS011;7733;51.554;13.590;2023-07-29T07:50:24;1.03;;;1.03;;
15261;SDS011;7733;51.554;13.590;2023-07-29T07:52:50;1.30;;;0.93;;
15261;SDS011;7733;51.554;13.590;2023-07-29T07:55:15;0.77;;;0.77;;
15261;SDS011;7733;51.554;13.590;2023-07-29T07:57:41;1.03;;;1.03;;
15261;SDS011;7733;51.554;13.590;2023-07-29T08:00:07;1.23;;;1.13;;
15261;SDS011;7733;51.554;13.590;2023-07-29T08:02:34;0.80;;;0.80;;
15261;SDS011;7733;51.554;13.590;2023-07-29T08:05:00;0.90;;;0.90;;
15261;SDS011;7733;51.554;13.590;2023-07-29T08:07:26;1.07;;;0.73;;
15261;SDS011;7733;51.554;13.590;2023-07-29T08:09:51;1.50;;;1.30;;
15261;SDS011;7733;51.554;13.590;2023-07-29T08:12:17;0.90;;;0.90;;
15261;SDS011;7733;51.554;13.590;2023-07-29T08:14:43;0.80;;;0.80;;
15261;SDS011;7733;51.554;13.590;2023-07-29T08:17:08;0.80;;;0.80;;
15261;SDS011;7733;51.554;13.590;2023-07-29T08:19:35;1.03;;;1.03;;
15261;SDS011;7733;51.554;13.590;2023-07-29T08:22:02;0.93;;;0.93;;
15261;SDS011;7733;51.554;13.590;2023-07-29T08:24:28;0.80;;;0.80;;
15261;SDS011;7733;51.554;13.590;2023-07-29T08:26:54;1.20;;;1.00;;
15261;SDS011;7733;51.554;13.590;2023-07-29T08:29:20;1.00;;;1.00;;
15261;SDS011;7733;51.554;13.590;2023-07-29T08:31:46;0.80;;;0.80;;
15261;SDS011;7733;51.554;13.590;2023-07-29T08:34:11;1.00;;;1.00;;
15261;SDS011;7733;51.554;13.590;2023-07-29T08:36:37;1.10;;;1.03;;
15261;SDS011;7733;51.554;13.590;2023-07-29T08:39:03;0.90;;;0.90;;
15261;SDS011;7733;51.554;13.590;2023-07-29T08:41:32;2.13;;;1.30;;
15261;SDS011;7733;51.554;13.590;2023-07-29T08:44:29;1.10;;;1.10;;
15261;SDS011;7733;51.554;13.590;2023-07-29T08:47:01;1.10;;;1.07;;
15261;SDS011;7733;51.554;13.590;2023-07-29T08:49:27;0.77;;;0.77;;
15261;SDS011;7733;51.554;13.590;2023-07-29T08:51:56;0.83;;;0.83;;
15261;SDS011;7733;51.554;13.590;2023-07-29T08:54:23;0.87;;;0.87;;
15261;SDS011;7733;51.554;13.590;2023-07-29T08:56:49;0.77;;;0.77;;
15261;SDS011;7733;51.554;13.590;2023-07-29T08:59:15;0.80;;;0.80;;
15261;SDS011;7733;51.554;13.590;2023-07-29T09:01:42;0.80;;;0.80;;
15261;SDS011;7733;51.554;13.590;2023-07-29T09:04:08;1.00;;;1.00;;
15261;SDS011;7733;51.554;13.590;2023-07-29T09:06:35;1.43;;;0.83;;
15261;SDS011;7733;51.554;13.590;2023-07-29T09:09:03;0.93;;;0.90;;
15261;SDS011;7733;51.554;13.590;2023-07-29T09:11:29;0.57;;;0.57;;
15261;SDS011;7733;51.554;13.590;2023-07-29T09:13:56;0.70;;;0.70;;
15261;SDS011;7733;51.554;13.590;2023-07-29T09:16:22;0.63;;;0.63;;
15261;SDS011;7733;51.554;13.590;2023-07-29T09:18:49;0.70;;;0.70;;
15261;SDS011;7733;51.554;13.590;2023-07-29T09:21:22;0.87;;;0.87;;
15261;SDS011;7733;51.554;13.590;2023-07-29T09:23:54;0.70;;;0.70;;
15261;SDS011;7733;51.554;13.590;2023-07-29T09:26:24;0.87;;;0.87;;
15261;SDS011;7733;51.554;13.590;2023-07-29T09:28:55;0.80;;;0.80;;
15261;SDS011;7733;51.554;13.590;2023-07-29T09:31:23;0.80;;;0.80;;
15261;SDS011;7733;51.554;13.590;2023-07-29T09:33:57;0.77;;;0.77;;
15261;SDS011;7733;51.554;13.590;2023-07-29T09:36:23;0.83;;;0.83;;
15261;SDS011;7733;51.554;13.590;2023-07-29T09:38:53;0.80;;;0.80;;
15261;SDS011;7733;51.554;13.590;2023-07-29T09:41:24;0.70;;;0.70;;
15261;SDS011;7733;51.554;13.590;2023-07-29T09:43:58;0.93;;;0.93;;
15261;SDS011;7733;51.554;13.590;2023-07-29T09:46:35;0.80;;;0.80;;
15261;SDS011;7733;51.554;13.590;2023-07-29T09:49:03;0.77;;;0.77;;
15261;SDS011;7733;51.554;13.590;2023-07-29T09:51:30;0.70;;;0.70;;
15261;SDS011;7733;51.554;13.590;2023-07-29T09:53:56;1.67;;;0.90;;
15261;SDS011;7733;51.554;13.590;2023-07-29T09:56:24;0.70;;;0.70;;
15261;SDS011;7733;51.554;13.590;2023-07-29T09:58:51;0.80;;;0.80;;
15261;SDS011;7733;51.554;13.590;2023-07-29T10:01:18;0.67;;;0.67;;
15261;SDS011;7733;51.554;13.590;2023-07-29T10:03:44;0.60;;;0.60;;
15261;SDS011;7733;51.554;13.590;2023-07-29T10:06:10;0.80;;;0.80;;
15261;SDS011;7733;51.554;13.590;2023-07-29T10:08:39;0.80;;;0.80;;
15261;SDS011;7733;51.554;13.590;2023-07-29T10:11:06;2.47;;;0.90;;
15261;SDS011;7733;51.554;13.590;2023-07-29T10:13:33;0.70;;;0.70;;
15261;SDS011;7733;51.554;13.590;2023-07-29T10:16:00;0.50;;;0.50;;
15261;SDS011;7733;51.554;13.590;2023-07-29T10:18:27;0.77;;;0.77;;
15261;SDS011;7733;51.554;13.590;2023-07-29T10:20:56;0.60;;;0.60;;
15261;SDS011;7733;51.554;13.590;2023-07-29T10:23:27;0.83;;;0.83;;
15261;SDS011;7733;51.554;13.590;2023-07-29T10:26:03;0.60;;;0.60;;
15261;SDS011;7733;51.554;13.590;2023-07-29T10:28:32;0.70;;;0.70;;
15261;SDS011;7733;51.554;13.590;2023-07-29T10:31:03;0.70;;;0.70;;
15261;SDS011;7733;51.554;13.590;2023-07-29T10:33:30;0.67;;;0.67;;
15261;SDS011;7733;51.554;13.590;2023-07-29T10:35:59;0.70;;;0.70;;
15261;SDS011;7733;51.554;13.590;2023-07-29T10:38:26;2.63;;;0.90;;
15261;SDS011;7733;51.554;13.590;2023-07-29T10:40:53;1.03;;;1.00;;
15261;SDS011;7733;51.554;13.590;2023-07-29T10:43:26;0.93;;;0.93;;
15261;SDS011;7733;51.554;13.590;2023-07-29T10:45:57;1.13;;;0.73;;
15261;SDS011;7733;51.554;13.590;2023-07-29T10:51:23;1.13;;;1.07;;
15261;SDS011;7733;51.554;13.590;2023-07-29T10:54:11;1.30;;;0.80;;
15261;SDS011;7733;51.554;13.590;2023-07-29T10:56:43;0.87;;;0.87;;
15261;SDS011;7733;51.554;13.590;2023-07-29T11:01:41;1.03;;;1.03;;
15261;SDS011;7733;51.554;13.590;2023-07-29T11:17:35;0.80;;;0.80;;
15261;SDS011;7733;51.554;13.590;2023-07-29T11:20:31;0.60;;;0.60;;
15261;SDS011;7733;51.554;13.590;2023-07-29T11:22:59;0.70;;;0.70;;
15261;SDS011;7733;51.554;13.590;2023-07-29T11:25:28;0.70;;;0.70;;
15261;SDS011;7733;51.554;13.590;2023-07-29T11:27:56;0.90;;;0.90;;
15261;SDS011;7733;51.554;13.590;2023-07-29T11:30:25;0.90;;;0.57;;
15261;SDS011;7733;51.554;13.590;2023-07-29T11:32:56;0.70;;;0.70;;
15261;SDS011;7733;51.554;13.590;2023-07-29T11:35:23;0.50;;;0.50;;
15261;SDS011;7733;51.554;13.590;2023-07-29T11:37:51;0.70;;;0.70;;
15261;SDS011;7733;51.554;13.590;2023-07-29T11:40:22;0.80;;;0.80;;
15261;SDS011;7733;51.554;13.590;2023-07-29T11:42:50;1.30;;;0.80;;
15261;SDS011;7733;51.554;13.590;2023-07-29T11:45:17;1.37;;;0.43;;
15261;SDS011;7733;51.554;13.590;2023-07-29T11:47:45;2.30;;;0.60;;
15261;SDS011;7733;51.554;13.590;2023-07-29T11:50:12;0.40;;;0.40;;
15261;SDS011;7733;51.554;13.590;2023-07-29T11:52:40;1.13;;;0.70;;
15261;SDS011;7733;51.554;13.590;2023-07-29T11:55:08;0.60;;;0.60;;
15261;SDS011;7733;51.554;13.590;2023-07-29T11:57:36;0.63;;;0.63;;
15261;SDS011;7733;51.554;13.590;2023-07-29T12:00:03;0.53;;;0.53;;
15261;SDS011;7733;51.554;13.590;2023-07-29T12:02:31;0.60;;;0.60;;
15261;SDS011;7733;51.554;13.590;2023-07-29T12:05:00;0.60;;;0.60;;
15261;SDS011;7733;51.554;13.590;2023-07-29T12:07:29;1.50;;;0.80;;
15261;SDS011;7733;51.554;13.590;2023-07-29T12:09:55;0.73;;;0.50;;
15261;SDS011;7733;51.554;13.590;2023-07-29T12:12:21;1.03;;;0.63;;
15261;SDS011;7733;51.554;13.590;2023-07-29T12:14:48;1.30;;;0.80;;
15261;SDS011;7733;51.554;13.590;2023-07-29T12:17:14;3.70;;;1.17;;
15261;SDS011;7733;51.554;13.590;2023-07-29T12:19:40;1.00;;;1.00;;
15261;SDS011;7733;51.554;13.590;2023-07-29T12:22:08;4.40;;;2.10;;
15261;SDS011;7733;51.554;13.590;2023-07-29T12:24:39;2.53;;;1.40;;
15261;SDS011;7733;51.554;13.590;2023-07-29T12:27:09;4.27;;;1.30;;
15261;SDS011;7733;51.554;13.590;2023-07-29T12:29:41;2.10;;;1.00;;
15261;SDS011;7733;51.554;13.590;2023-07-29T12:32:08;0.97;;;0.97;;
15261;SDS011;7733;51.554;13.590;2023-07-29T12:34:35;0.87;;;0.83;;
15261;SDS011;7733;51.554;13.590;2023-07-29T12:37:04;2.27;;;1.30;;
15261;SDS011;7733;51.554;13.590;2023-07-29T12:39:35;0.90;;;0.90;;
15261;SDS011;7733;51.554;13.590;2023-07-29T12:42:06;1.30;;;1.20;;
15261;SDS011;7733;51.554;13.590;2023-07-29T12:44:32;1.13;;;1.03;;
15261;SDS011;7733;51.554;13.590;2023-07-29T12:47:01;1.73;;;1.00;;
15261;SDS011;7733;51.554;13.590;2023-07-29T12:49:29;2.10;;;1.03;;
15261;SDS011;7733;51.554;13.590;2023-07-29T12:51:58;1.37;;;1.27;;
15261;SDS011;7733;51.554;13.590;2023-07-29T12:54:25;4.43;;;1.13;;
15261;SDS011;7733;51.554;13.590;2023-07-29T12:56:51;1.20;;;1.07;;
15261;SDS011;7733;51.554;13.590;2023-07-29T12:59:17;1.60;;;1.00;;
15261;SDS011;7733;51.554;13.590;2023-07-29T13:01:42;1.00;;;1.00;;
15261;SDS011;7733;51.554;13.590;2023-07-29T13:04:09;0.70;;;0.70;;
15261;SDS011;7733;51.554;13.590;2023-07-29T13:06:36;0.80;;;0.80;;
15261;SDS011;7733;51.554;13.590;2023-07-29T13:09:02;1.13;;;1.13;;
15261;SDS011;7733;51.554;13.590;2023-07-29T13:11:28;1.30;;;1.20;;
15261;SDS011;7733;51.554;13.590;2023-07-29T13:13:54;1.43;;;1.10;;
15261;SDS011;7733;51.554;13.590;2023-07-29T13:16:19;0.90;;;0.87;;
15261;SDS011;7733;51.554;13.590;2023-07-29T13:18:45;1.00;;;1.00;;
15261;SDS011;7733;51.554;13.590;2023-07-29T13:21:11;0.97;;;0.97;;
15261;SDS011;7733;51.554;13.590;2023-07-29T13:23:36;1.10;;;1.10;;
15261;SDS011;7733;51.554;13.590;2023-07-29T13:26:02;1.17;;;1.07;;
15261;SDS011;7733;51.554;13.590;2023-07-29T13:28:28;6.30;;;1.30;;
15261;SDS011;7733;51.554;13.590;2023-07-29T13:30:54;0.73;;;0.73;;
15261;SDS011;7733;51.554;13.590;2023-07-29T13:33:20;1.50;;;1.00;;
15261;SDS011;7733;51.554;13.590;2023-07-29T13:35:46;1.20;;;1.10;;
15261;SDS011;7733;51.554;13.590;2023-07-29T13:38:11;1.00;;;1.00;;
15261;SDS011;7733;51.554;13.590;2023-07-29T13:40:37;1.17;;;1.17;;
15261;SDS011;7733;51.554;13.590;2023-07-29T13:43:03;1.80;;;1.20;;
15261;SDS011;7733;51.554;13.590;2023-07-29T13:45:28;1.93;;;1.70;;
15261;SDS011;7733;51.554;13.590;2023-07-29T13:47:54;2.20;;;1.20;;
15261;SDS011;7733;51.554;13.590;2023-07-29T13:50:20;1.00;;;1.00;;
15261;SDS011;7733;51.554;13.590;2023-07-29T13:52:46;1.10;;;1.07;;
15261;SDS011;7733;51.554;13.590;2023-07-29T13:55:11;0.97;;;0.97;;
15261;SDS011;7733;51.554;13.590;2023-07-29T13:57:37;1.03;;;1.00;;
15261;SDS011;7733;51.554;13.590;2023-07-29T14:00:05;1.10;;;1.10;;
15261;SDS011;7733;51.554;13.590;2023-07-29T14:02:32;1.20;;;1.10;;
15261;SDS011;7733;51.554;13.590;2023-07-29T14:04:57;3.90;;;1.00;;
15261;SDS011;7733;51.554;13.590;2023-07-29T14:07:23;1.00;;;1.00;;
15261;SDS011;7733;51.554;13.590;2023-07-29T14:09:49;1.70;;;0.90;;
15261;SDS011;7733;51.554;13.590;2023-07-29T14:12:15;0.90;;;0.90;;
15261;SDS011;7733;51.554;13.590;2023-07-29T14:14:41;1.27;;;1.17;;
15261;SDS011;7733;51.554;13.590;2023-07-29T14:17:07;1.70;;;0.90;;
15261;SDS011;7733;51.554;13.590;2023-07-29T14:19:34;1.07;;;1.07;;
15261;SDS011;7733;51.554;13.590;2023-07-29T14:22:01;1.00;;;1.00;;
15261;SDS011;7733;51.554;13.590;2023-07-29T14:24:27;1.17;;;0.90;;
15261;SDS011;7733;51.554;13.590;2023-07-29T14:26:52;2.33;;;0.90;;
15261;SDS011;7733;51.554;13.590;2023-07-29T14:29:18;1.13;;;0.87;;
15261;SDS011;7733;51.554;13.590;2023-07-29T14:31:44;1.00;;;1.00;;
15261;SDS011;7733;51.554;13.590;2023-07-29T14:34:09;0.93;;;0.93;;
15261;SDS011;7733;51.554;13.590;2023-07-29T14:36:35;0.80;;;0.80;;
15261;SDS011;7733;51.554;13.590;2023-07-29T14:39:01;0.90;;;0.90;;
15261;SDS011;7733;51.554;13.590;2023-07-29T14:41:27;1.10;;;1.10;;
15261;SDS011;7733;51.554;13.590;2023-07-29T14:43:53;0.90;;;0.90;;
15261;SDS011;7733;51.554;13.590;2023-07-29T14:46:19;1.60;;;0.90;;
15261;SDS011;7733;51.554;13.590;2023-07-29T14:48:44;1.13;;;1.00;;
15261;SDS011;7733;51.554;13.590;2023-07-29T14:51:12;0.70;;;0.70;;
15261;SDS011;7733;51.554;13.590;2023-07-29T14:53:38;0.80;;;0.80;;
15261;SDS011;7733;51.554;13.590;2023-07-29T14:56:04;2.07;;;0.93;;
15261;SDS011;7733;51.554;13.590;2023-07-29T14:58:30;0.80;;;0.80;;
15261;SDS011;7733;51.554;13.590;2023-07-29T15:00:56;0.80;;;0.80;;
15261;SDS011;7733;51.554;13.590;2023-07-29T15:03:21;0.80;;;0.70;;
15261;SDS011;7733;51.554;13.590;2023-07-29T15:05:48;0.80;;;0.80;;
15261;SDS011;7733;51.554;13.590;2023-07-29T15:08:14;1.07;;;0.90;;
15261;SDS011;7733;51.554;13.590;2023-07-29T15:10:40;1.00;;;1.00;;
15261;SDS011;7733;51.554;13.590;2023-07-29T15:13:06;1.00;;;1.00;;
15261;SDS011;7733;51.554;13.590;2023-07-29T15:15:31;1.00;;;1.00;;